Time;durP1;ratioP1;P1;durP2;ratioP2;P2;SDS_P1;SDS_P2;PMS_P1;PMS_P2;Temp;Humidity;BMP_temperature;BMP_pressure;BME280_temperature;BME280_humidity;BME280_pressure;Samples;Min_cycle;Max_cycle;Signal;HPM_P1;HPM_P2
2020/12/19 00:06:38;;;;;;;23.30;14.95;;;;;;;8.23;80.00;100888.38;5055045;28;20037;-63
2020/12/19 00:09:08;;;;;;;21.95;13.50;;;;;;;8.19;79.85;100879.91;5037083;28;20057;-68
2020/12/19 00:11:35;;;;;;;22.55;14.32;;;;;;;8.22;79.83;100879.31;5054289;28;20064;-69
2020/12/19 00:14:02;;;;;;;19.33;14.55;;;;;;;8.26;79.44;100879.59;5054754;28;20383;-69
2020/12/19 00:21:06;;;;;;;21.80;13.77;;;;;;;8.16;79.77;100868.72;5054249;28;20049;-64
2020/12/19 00:23:33;;;;;;;22.38;14.20;;;;;;;8.07;80.13;100863.06;5054478;28;20045;-62
2020/12/19 00:26:00;;;;;;;19.63;13.73;;;;;;;8.08;80.10;100864.69;5055011;28;20049;-64
2020/12/19 00:28:27;;;;;;;21.67;14.40;;;;;;;8.18;79.76;100861.81;5036395;28;20048;-62
2020/12/19 00:30:54;;;;;;;24.08;14.30;;;;;;;8.26;79.33;100849.41;5054174;28;20045;-65
2020/12/19 00:33:22;;;;;;;21.38;13.93;;;;;;;8.23;79.36;100852.72;5054515;28;20053;-62
2020/12/19 00:35:49;;;;;;;22.48;13.05;;;;;;;8.19;79.29;100847.00;5054105;28;20057;-63
2020/12/19 00:38:16;;;;;;;19.42;13.70;;;;;;;8.16;79.83;100849.50;5054676;28;20056;-61
2020/12/19 00:40:56;;;;;;;20.67;12.95;;;;;;;8.20;79.29;100837.63;5054319;28;20400;-61
2020/12/19 00:43:23;;;;;;;17.80;12.65;;;;;;;8.18;79.61;100834.38;5054511;28;20052;-62
2020/12/19 00:45:50;;;;;;;19.80;13.45;;;;;;;8.12;79.98;100832.81;5054133;28;20041;-60
2020/12/19 00:48:18;;;;;;;21.38;12.80;;;;;;;8.26;79.98;100833.75;5053749;28;20053;-64
2020/12/19 00:50:45;;;;;;;16.48;12.43;;;;;;;8.22;79.81;100823.63;5036241;28;20049;-61
2020/12/19 00:53:12;;;;;;;23.00;12.95;;;;;;;8.09;79.86;100822.41;5054131;28;20056;-61
2020/12/19 00:55:38;;;;;;;17.83;12.43;;;;;;;8.09;80.21;100818.88;5054296;28;20053;-61
2020/12/19 00:58:05;;;;;;;18.40;12.75;;;;;;;7.96;80.29;100815.75;5054266;28;20060;-62
2020/12/19 01:00:32;;;;;;;17.90;11.95;;;;;;;8.13;80.29;100814.41;5054172;28;20053;-62
2020/12/19 01:02:59;;;;;;;17.88;12.30;;;;;;;8.18;79.77;100820.66;5054271;28;20159;-60
2020/12/19 01:05:26;;;;;;;17.23;12.32;;;;;;;8.16;80.05;100811.09;5053333;28;20045;-62
2020/12/19 01:07:53;;;;;;;21.98;11.70;;;;;;;8.27;79.75;100807.94;5053283;28;20053;-61
2020/12/19 01:10:20;;;;;;;17.27;11.88;;;;;;;7.90;80.97;100807.84;5053831;28;20060;-63
2020/12/19 01:12:46;;;;;;;18.92;12.40;;;;;;;7.94;81.26;100797.94;5053325;28;20057;-64
2020/12/19 01:15:14;;;;;;;17.20;11.80;;;;;;;8.14;80.85;100803.16;5053340;28;20045;-62
2020/12/19 01:22:10;;;;;;;17.98;11.30;;;;;;;7.89;80.59;100787.88;4972404;28;20422;-61
2020/12/19 01:24:37;;;;;;;17.75;12.57;;;;;;;8.10;80.63;100790.31;4956554;28;20050;-60
2020/12/19 01:27:03;;;;;;;18.20;12.10;;;;;;;8.06;80.76;100789.28;4972296;28;20459;-62
2020/12/19 01:29:30;;;;;;;22.98;11.60;;;;;;;7.89;81.37;100787.03;4972844;28;20435;-61
2020/12/19 01:36:22;;;;;;;16.63;12.30;;;;;;;8.13;80.73;100773.25;5028578;28;20049;-62
2020/12/19 01:38:50;;;;;;;20.20;12.32;;;;;;;7.93;80.95;100772.44;5053806;28;20060;-63
2020/12/19 01:41:20;;;;;;;;;;;;;;;7.92;81.20;100772.72;5053893;28;20056;-66
2020/12/19 01:43:50;;;;;;;19.13;12.23;;;;;;;7.94;81.51;100778.75;5053149;28;19928;-65
2020/12/19 01:46:53;;;;;;;18.75;11.57;;;;;;;8.01;81.13;100762.75;5052784;28;20045;-65
2020/12/19 01:49:25;;;;;;;17.00;11.27;;;;;;;8.06;80.96;100770.06;5053554;28;20068;-61
2020/12/19 01:51:55;;;;;;;17.30;11.75;;;;;;;7.99;81.22;100759.47;5052854;28;20045;-63
2020/12/19 01:54:22;;;;;;;20.05;11.43;;;;;;;8.02;81.05;100769.03;5052796;28;20064;-62
2020/12/19 01:56:51;;;;;;;15.70;11.10;;;;;;;7.95;81.43;100764.72;5035841;28;20055;-63
2020/12/19 01:59:22;;;;;;;18.48;11.90;;;;;;;7.86;81.63;100765.69;5052469;28;20053;-64
2020/12/19 02:01:52;;;;;;;18.92;12.00;;;;;;;7.75;82.01;100769.66;5054055;28;20052;-62
2020/12/19 02:04:20;;;;;;;16.17;10.73;;;;;;;7.64;82.92;100766.22;5053391;28;20063;-64
2020/12/19 02:06:51;;;;;;;17.67;12.13;;;;;;;7.75;83.04;100766.91;5053086;28;20638;-61
2020/12/19 02:09:20;;;;;;;18.77;12.75;;;;;;;8.06;81.98;100759.09;5052890;28;20045;-61
2020/12/19 02:11:47;;;;;;;17.63;11.45;;;;;;;7.91;81.88;100749.16;5051352;28;20049;-61
2020/12/19 02:14:15;;;;;;;18.67;12.23;;;;;;;7.76;82.11;100757.56;5035084;28;20056;-62
2020/12/19 02:17:12;;;;;;;19.70;12.77;;;;;;;7.71;83.16;100749.41;5052804;28;20045;-61
2020/12/19 02:19:41;;;;;;;22.60;13.27;;;;;;;7.66;83.14;100742.09;4991478;28;20514;-61
2020/12/19 02:22:09;;;;;;;19.48;14.10;;;;;;;7.71;82.91;100754.91;4991600;28;20525;-61
2020/12/19 02:24:37;;;;;;;23.77;15.15;;;;;;;7.62;83.93;100742.94;4975423;28;20128;-61
2020/12/19 02:27:04;;;;;;;26.52;17.25;;;;;;;7.66;83.69;100744.00;4991355;28;20047;-62
2020/12/19 02:29:32;;;;;;;27.05;18.92;;;;;;;7.68;83.66;100739.06;4991432;28;20509;-61
2020/12/19 02:32:00;;;;;;;25.75;18.17;;;;;;;7.83;83.19;100736.91;4990663;28;20178;-60
2020/12/19 02:34:28;;;;;;;29.60;18.50;;;;;;;7.90;83.08;100731.88;4990906;28;20074;-62
2020/12/19 02:36:55;;;;;;;33.13;19.60;;;;;;;7.92;82.63;100734.34;4991474;28;20062;-61
2020/12/19 02:39:22;;;;;;;31.90;20.40;;;;;;;7.82;82.93;100727.06;4991624;28;20042;-64
2020/12/19 02:41:50;;;;;;;32.13;19.33;;;;;;;7.78;83.24;100723.28;4990795;28;20497;-64
2020/12/19 02:44:19;;;;;;;30.25;19.52;;;;;;;7.80;82.94;100726.56;4974504;28;20065;-62
2020/12/19 02:46:46;;;;;;;31.38;19.30;;;;;;;7.90;82.90;100718.19;4991274;28;20059;-61
2020/12/19 02:49:13;;;;;;;26.98;19.33;;;;;;;7.85;83.13;100720.16;4991407;28;20533;-63
2020/12/19 02:51:40;;;;;;;26.33;19.00;;;;;;;7.88;82.82;100712.16;4991704;28;20054;-63
2020/12/19 02:54:07;;;;;;;29.40;19.15;;;;;;;7.86;83.09;100716.34;4991201;28;20050;-63
2020/12/19 02:56:34;;;;;;;31.30;20.08;;;;;;;8.02;82.84;100708.69;5032587;28;20053;-61
2020/12/19 02:59:01;;;;;;;33.83;21.13;;;;;;;7.82;82.87;100707.88;5052216;28;20053;-66
2020/12/19 03:01:29;;;;;;;32.50;19.88;;;;;;;7.77;83.77;100702.47;5052238;28;20060;-64
2020/12/19 03:03:57;;;;;;;28.77;19.90;;;;;;;7.89;83.56;100697.38;5051096;28;20045;-60
2020/12/19 03:06:31;;;;;;;27.95;19.13;;;;;;;7.98;83.08;100692.03;5051743;28;20060;-60
2020/12/19 03:08:58;;;;;;;26.13;18.00;;;;;;;7.87;83.16;100691.34;5052242;28;20049;-64
2020/12/19 03:11:25;;;;;;;26.60;18.42;;;;;;;7.81;83.38;100689.00;5055750;28;20053;-62
2020/12/19 03:13:52;;;;;;;28.83;17.95;;;;;;;7.94;82.83;100680.00;5055257;28;20052;-62
2020/12/19 03:16:21;;;;;;;25.30;16.92;;;;;;;7.82;83.42;100682.38;5056314;28;20064;-64
2020/12/19 03:18:49;;;;;;;27.08;16.70;;;;;;;7.72;84.09;100677.84;5056389;28;20040;-63
2020/12/19 03:21:17;;;;;;;26.23;16.85;;;;;;;7.84;83.96;100672.75;5056285;28;20060;-63
2020/12/19 03:23:44;;;;;;;25.05;16.63;;;;;;;7.78;83.59;100668.44;5056498;28;20041;-62
2020/12/19 03:26:11;;;;;;;24.42;15.45;;;;;;;7.43;85.16;100666.19;5057412;28;20045;-64
2020/12/19 03:28:38;;;;;;;28.50;16.25;;;;;;;7.56;85.12;100672.88;5056101;28;20057;-61
2020/12/19 03:31:05;;;;;;;23.55;15.65;;;;;;;7.55;85.01;100668.53;5055736;28;20052;-62
2020/12/19 03:33:32;;;;;;;23.65;15.32;;;;;;;7.45;86.15;100671.38;5037517;28;20052;-63
2020/12/19 03:35:59;;;;;;;22.02;14.93;;;;;;;7.47;86.28;100677.38;5070908;28;20048;-64
2020/12/19 03:38:26;;;;;;;22.08;15.23;;;;;;;7.57;85.42;100680.81;5021211;28;20049;-63
2020/12/19 03:40:53;;;;;;;18.10;13.48;;;;;;;7.70;84.70;100676.53;5054987;28;20049;-64
2020/12/19 03:43:20;;;;;;;22.60;14.32;;;;;;;7.69;84.78;100677.63;5055844;28;20056;-61
2020/12/19 03:45:47;;;;;;;22.00;14.27;;;;;;;7.74;85.08;100675.63;5055363;28;20044;-61
2020/12/19 03:48:14;;;;;;;18.95;13.32;;;;;;;7.88;84.28;100670.22;5054963;28;20057;-62
2020/12/19 03:50:41;;;;;;;19.33;13.27;;;;;;;8.15;83.42;100669.53;5055287;28;20053;-63
2020/12/19 03:53:07;;;;;;;16.70;11.75;;;;;;;7.84;84.13;100666.44;5054861;28;20049;-62
2020/12/19 03:55:34;;;;;;;21.50;13.05;;;;;;;7.99;84.54;100664.28;5071240;28;20056;-63
2020/12/19 03:58:01;;;;;;;17.52;12.00;;;;;;;8.07;83.98;100662.81;5055504;28;20056;-62
2020/12/19 04:00:28;;;;;;;20.58;12.52;;;;;;;8.09;83.54;100657.81;5055083;28;20052;-61
2020/12/19 04:07:22;;;;;;;19.75;11.75;;;;;;;8.15;83.32;100642.09;5055149;28;20029;-63
2020/12/19 04:09:50;;;;;;;22.83;11.57;;;;;;;8.30;83.00;100645.44;5055327;28;20049;-64
2020/12/19 04:12:17;;;;;;;19.17;11.98;;;;;;;8.35;82.41;100642.59;5054868;28;20408;-61
2020/12/19 04:14:44;;;;;;;17.00;11.85;;;;;;;8.17;82.93;100643.44;5055298;28;20049;-62
2020/12/19 04:21:51;;;;;;;;;;;;;;;8.45;82.21;100639.72;5054615;28;20057;-64
2020/12/19 04:24:18;;;;;;;19.90;11.15;;;;;;;8.56;81.70;100643.09;5054509;28;20368;-63
2020/12/19 04:26:45;;;;;;;19.20;11.07;;;;;;;8.15;82.48;100644.84;5036839;28;20049;-64
2020/12/19 04:29:13;;;;;;;15.77;10.52;;;;;;;8.16;83.09;100636.31;5054720;28;20053;-60
2020/12/19 04:31:40;;;;;;;17.55;11.55;;;;;;;8.27;83.20;100629.59;5036647;28;20052;-61
2020/12/19 04:34:07;;;;;;;16.13;10.80;;;;;;;8.31;82.07;100627.06;5054623;28;20049;-60
2020/12/19 04:36:34;;;;;;;17.00;10.90;;;;;;;8.13;82.86;100617.72;5054918;28;20488;-62
2020/12/19 04:39:01;;;;;;;19.02;11.75;;;;;;;8.42;81.87;100626.56;5056278;28;20056;-63
2020/12/19 04:41:28;;;;;;;17.25;11.23;;;;;;;8.26;82.23;100613.44;5056256;28;20056;-67
2020/12/19 04:43:55;;;;;;;16.23;11.98;;;;;;;8.17;82.75;100618.75;5056582;28;20049;-65
2020/12/19 04:46:22;;;;;;;18.92;11.57;;;;;;;8.23;82.67;100614.00;5055181;28;20049;-67
2020/12/19 04:48:49;;;;;;;15.95;11.38;;;;;;;8.12;83.14;100612.53;5072457;28;20049;-65
2020/12/19 04:51:16;;;;;;;18.60;11.30;;;;;;;7.94;83.29;100611.44;5038388;28;20480;-63
2020/12/19 04:53:43;;;;;;;17.83;11.50;;;;;;;7.92;83.78;100606.25;5070817;28;20053;-65
2020/12/19 04:56:12;;;;;;;15.13;11.13;;;;;;;7.90;83.87;100608.47;5055923;28;20369;-63
2020/12/19 04:58:39;;;;;;;18.33;11.20;;;;;;;8.03;83.51;100609.66;5071032;28;20492;-64
2020/12/19 05:01:06;;;;;;;15.00;10.90;;;;;;;8.08;83.36;100606.84;5036650;28;20405;-67
2020/12/19 05:03:33;;;;;;;18.85;11.57;;;;;;;8.14;82.93;100613.88;5054008;28;20534;-64
2020/12/19 05:06:01;;;;;;;15.10;11.27;;;;;;;8.13;82.96;100612.22;5053614;28;20060;-63
2020/12/19 05:08:28;;;;;;;17.67;11.18;;;;;;;8.14;83.08;100613.88;5036000;28;20338;-66
2020/12/19 05:10:56;;;;;;;16.30;10.70;;;;;;;8.34;82.19;100608.06;5053928;28;20057;-66
2020/12/19 05:13:23;;;;;;;14.93;10.68;;;;;;;8.09;82.75;100616.69;5053732;28;20067;-67
2020/12/19 05:15:50;;;;;;;16.13;10.95;;;;;;;8.29;82.50;100602.66;5054051;28;20048;-67
2020/12/19 05:22:54;;;;;;;17.58;10.30;;;;;;;8.39;81.74;100599.72;5053414;28;20049;-62
2020/12/19 05:25:26;;;;;;;16.17;10.30;;;;;;;8.22;81.53;100607.69;5053458;28;20068;-65
2020/12/19 05:27:53;;;;;;;16.48;10.77;;;;;;;8.17;82.21;100605.03;5053001;28;20044;-64
2020/12/19 05:30:21;;;;;;;17.30;10.50;;;;;;;8.33;82.42;100608.38;5053264;28;20389;-62
2020/12/19 05:32:52;;;;;;;16.15;9.98;;;;;;;8.31;81.81;100605.09;5053261;28;20049;-62
2020/12/19 05:35:21;;;;;;;15.10;9.63;;;;;;;8.45;81.52;100598.53;5053988;28;20045;-64
2020/12/19 05:37:59;;;;;;;13.77;9.75;;;;;;;8.23;82.03;100606.56;5054486;28;20060;-62
2020/12/19 05:40:28;;;;;;;15.95;9.88;;;;;;;8.25;82.08;100601.63;5053868;28;20049;-60
2020/12/19 05:42:58;;;;;;;16.05;9.70;;;;;;;8.37;81.40;100598.41;5053686;28;20060;-63
2020/12/19 05:45:27;;;;;;;15.10;9.40;;;;;;;8.29;81.87;100594.44;5053842;28;20518;-64
2020/12/19 05:47:55;;;;;;;13.40;9.00;;;;;;;8.41;81.46;100592.00;5053783;28;20408;-62
2020/12/19 05:50:23;;;;;;;13.98;9.38;;;;;;;8.30;82.26;100593.31;5053250;28;20503;-61
2020/12/19 05:52:50;;;;;;;13.73;8.73;;;;;;;8.31;81.86;100597.69;5035477;28;20052;-62
2020/12/19 05:55:18;;;;;;;14.45;9.00;;;;;;;8.42;81.41;100606.56;5053354;28;20056;-63
2020/12/19 05:57:45;;;;;;;11.68;8.23;;;;;;;8.50;81.27;100620.41;5052851;28;20053;-63
2020/12/19 06:00:15;;;;;;;14.93;8.18;;;;;;;8.49;81.09;100609.72;5052739;28;20480;-63
2020/12/19 06:02:43;;;;;;;15.25;8.27;;;;;;;8.58;80.61;100603.22;5035499;28;20072;-61
2020/12/19 06:05:11;;;;;;;14.20;8.45;;;;;;;8.64;80.37;100602.03;5053068;28;20076;-60
2020/12/19 06:07:41;;;;;;;14.75;8.30;;;;;;;8.64;80.25;100601.19;5033271;28;20053;-61
2020/12/19 06:10:09;;;;;;;13.23;7.85;;;;;;;8.67;80.31;100609.66;5034778;28;20045;-62
2020/12/19 06:13:02;;;;;;;13.65;7.47;;;;;;;8.88;80.13;100599.91;5036248;28;20041;-60
2020/12/19 06:15:45;;;;;;;12.43;7.75;;;;;;;8.86;79.04;100599.38;5034135;28;20064;-62
2020/12/19 06:18:22;;;;;;;15.05;7.95;;;;;;;8.78;79.79;100605.59;5032955;28;20053;-62
2020/12/19 06:20:49;;;;;;;12.68;7.28;;;;;;;8.76;79.77;100596.03;5033038;28;20049;-62
2020/12/19 06:23:16;;;;;;;12.52;7.15;;;;;;;8.76;79.75;100596.03;5031336;28;20076;-61
2020/12/19 06:25:44;;;;;;;10.70;7.40;;;;;;;8.65;80.09;100600.91;5032676;28;20057;-61
2020/12/19 06:28:12;;;;;;;10.98;6.80;;;;;;;8.75;79.92;100600.69;5032710;28;20045;-64
2020/12/19 06:30:39;;;;;;;11.73;7.53;;;;;;;8.76;79.97;100601.50;5032531;28;20053;-63
2020/12/19 06:33:11;;;;;;;11.02;6.72;;;;;;;8.89;79.51;100597.97;5032481;28;20050;-63
2020/12/19 06:35:38;;;;;;;12.38;6.90;;;;;;;8.90;79.12;100596.84;5047812;28;20053;-63
2020/12/19 06:38:05;;;;;;;11.32;6.47;;;;;;;8.88;79.07;100601.81;5014537;28;20049;-65
2020/12/19 06:40:39;;;;;;;13.40;7.88;;;;;;;8.83;79.33;100589.03;5032276;28;20049;-63
2020/12/19 06:43:12;;;;;;;9.48;6.05;;;;;;;8.93;79.50;100598.97;5032362;28;20081;-62
2020/12/19 06:45:40;;;;;;;13.48;6.32;;;;;;;8.88;79.24;100605.38;5035434;28;20061;-70
2020/12/19 06:48:34;;;;;;;10.88;6.25;;;;;;;8.88;79.51;100610.06;5037152;28;20061;-61
2020/12/19 06:51:03;;;;;;;12.00;6.32;;;;;;;8.97;78.86;100602.75;5036555;28;20054;-62
2020/12/19 06:53:31;;;;;;;12.30;6.50;;;;;;;9.07;79.08;100616.28;5036602;28;20045;-63
2020/12/19 06:55:58;;;;;;;10.27;6.10;;;;;;;9.01;78.63;100623.00;5036742;28;20104;-62
2020/12/19 06:58:32;;;;;;;9.85;6.03;;;;;;;9.16;78.39;100625.44;5035943;28;20393;-62
2020/12/19 07:01:01;;;;;;;13.30;6.20;;;;;;;9.07;78.50;100627.25;5019558;28;20060;-63
2020/12/19 07:03:39;;;;;;;15.02;6.25;;;;;;;9.22;78.36;100626.97;5035945;28;20057;-64
2020/12/19 07:06:11;;;;;;;9.80;5.63;;;;;;;9.23;77.98;100625.84;5043478;28;20059;-62
2020/12/19 07:08:49;;;;;;;10.95;5.70;;;;;;;9.22;78.21;100626.16;5024347;28;20051;-63
2020/12/19 07:11:33;;;;;;;10.02;5.72;;;;;;;9.18;78.06;100630.63;5056448;28;20503;-63
2020/12/19 07:14:00;;;;;;;12.57;6.13;;;;;;;9.21;78.26;100632.75;5037784;28;20045;-62
2020/12/19 07:20:56;;;;;;;9.02;5.00;;;;;;;9.36;77.60;100633.25;5055592;28;20049;-62
2020/12/19 07:23:24;;;;;;;13.05;5.30;;;;;;;9.33;77.91;100624.81;5056498;28;20045;-63
2020/12/19 07:25:59;;;;;;;12.55;4.95;;;;;;;9.47;77.47;100633.84;5056802;28;20036;-62
2020/12/19 07:28:27;;;;;;;8.20;4.93;;;;;;;9.58;77.05;100633.31;5056783;28;20060;-61
2020/12/19 07:30:56;;;;;;;9.30;5.20;;;;;;;9.51;77.26;100632.94;5056234;28;20052;-61
2020/12/19 07:33:23;;;;;;;9.25;4.80;;;;;;;9.60;76.82;100630.25;5055825;28;20061;-63
2020/12/19 07:35:50;;;;;;;11.10;4.50;;;;;;;9.70;76.85;100639.09;5055795;28;20064;-61
2020/12/19 07:38:20;;;;;;;9.13;5.00;;;;;;;9.63;77.00;100646.13;5021540;28;20049;-60
2020/12/19 07:40:54;;;;;;;8.25;4.55;;;;;;;9.75;76.52;100647.22;5055437;28;20052;-62
2020/12/19 07:43:22;;;;;;;8.90;4.55;;;;;;;9.74;76.73;100647.53;5056187;28;20049;-61
2020/12/19 07:45:55;;;;;;;8.68;4.53;;;;;;;9.67;76.81;100653.47;5055627;28;20037;-63
2020/12/19 07:48:23;;;;;;;10.52;4.53;;;;;;;9.73;76.92;100657.72;5055664;28;20052;-63
2020/12/19 07:50:50;;;;;;;12.27;4.88;;;;;;;9.77;76.91;100666.16;5056064;28;20392;-65
2020/12/19 07:53:19;;;;;;;7.73;4.67;;;;;;;9.88;76.01;100670.34;5037672;28;20041;-64
2020/12/19 07:55:50;;;;;;;9.85;4.72;;;;;;;9.99;75.92;100666.19;5037121;28;20314;-62
2020/12/19 07:58:18;;;;;;;9.25;4.45;;;;;;;10.03;76.19;100680.97;5054885;28;20052;-62
2020/12/19 08:00:45;;;;;;;9.23;4.40;;;;;;;10.08;76.01;100684.47;5055475;28;20052;-63
2020/12/19 08:03:13;;;;;;;9.00;4.35;;;;;;;10.18;76.46;100678.72;5054968;28;20049;-64
2020/12/19 08:05:40;;;;;;;9.50;4.03;;;;;;;10.11;77.36;100685.78;5036963;28;20072;-62
2020/12/19 08:08:10;;;;;;;8.35;3.50;;;;;;;10.30;77.47;100680.09;5037061;28;20045;-65
2020/12/19 08:10:38;;;;;;;7.97;4.07;;;;;;;10.46;77.37;100690.41;5036964;28;20053;-62
2020/12/19 08:13:09;;;;;;;9.77;3.55;;;;;;;10.49;76.99;100683.47;5054715;28;20052;-63
2020/12/19 08:15:37;;;;;;;7.15;3.47;;;;;;;10.46;77.53;100695.13;5055316;28;20064;-64
2020/12/19 08:18:07;;;;;;;10.23;4.25;;;;;;;10.57;77.25;100686.28;5054737;28;20053;-63
2020/12/19 08:20:35;;;;;;;;;;;;;;;10.47;77.63;100688.47;5055000;28;20045;-62
2020/12/19 08:23:07;;;;;;;10.25;4.57;;;;;;;10.47;78.05;100696.75;5037055;28;19921;-65
2020/12/19 08:25:35;;;;;;;10.35;4.47;;;;;;;10.41;78.47;100704.31;5054263;28;20041;-65
2020/12/19 08:28:02;;;;;;;9.85;4.80;;;;;;;10.38;78.85;100704.94;5036989;28;20049;-61
2020/12/19 08:33:48;;;;;;;8.57;3.80;;;;;;;10.56;78.90;100711.41;5015065;28;20054;-70
2020/12/19 08:36:16;;;;;;;8.38;3.65;;;;;;;10.62;78.79;100705.44;5033890;28;20637;-72
2020/12/19 08:38:43;;;;;;;8.00;4.00;;;;;;;10.54;79.41;100710.88;5032845;28;20053;-72
2020/12/19 08:41:20;;;;;;;6.63;3.63;;;;;;;10.53;79.59;100721.09;5032335;28;20091;-65
2020/12/19 08:43:47;;;;;;;7.32;3.90;;;;;;;10.63;79.68;100717.28;5027260;28;20057;-64
2020/12/19 08:46:14;;;;;;;8.35;4.32;;;;;;;10.79;79.12;100726.78;5033052;28;20061;-69
2020/12/19 08:48:42;;;;;;;10.07;4.13;;;;;;;10.75;79.06;100721.09;5033601;28;20056;-71
2020/12/19 08:51:10;;;;;;;8.93;4.32;;;;;;;10.67;78.96;100723.78;5032395;28;20073;-64
2020/12/19 08:53:38;;;;;;;10.93;4.50;;;;;;;10.67;79.40;100727.34;5015062;28;20099;-71
2020/12/19 08:56:13;;;;;;;8.70;4.07;;;;;;;10.57;79.99;100729.53;5028504;28;20488;-70
2020/12/19 08:58:41;;;;;;;12.23;4.22;;;;;;;10.55;80.81;100737.31;5032983;28;20408;-73
2020/12/19 09:01:15;;;;;;;12.15;4.50;;;;;;;10.65;80.50;100737.84;5034632;28;20049;-68
2020/12/19 09:03:43;;;;;;;7.38;3.80;;;;;;;10.61;80.70;100747.06;5011353;28;20049;-75
2020/12/19 09:06:13;;;;;;;10.02;4.05;;;;;;;10.77;80.45;100749.16;5033170;28;20037;-73
2020/12/19 09:08:42;;;;;;;10.85;4.30;;;;;;;10.86;80.16;100755.50;5033497;28;20053;-72
2020/12/19 09:11:22;;;;;;;7.50;4.38;;;;;;;10.92;80.51;100759.78;5032386;28;20065;-71
2020/12/19 09:13:52;;;;;;;7.90;3.97;;;;;;;10.85;81.15;100759.41;5033393;28;20053;-62
2020/12/19 09:16:19;;;;;;;6.72;3.72;;;;;;;10.72;81.60;100756.72;5000348;28;20053;-69
2020/12/19 09:18:47;;;;;;;9.25;4.10;;;;;;;10.69;82.32;100763.66;5032822;28;20060;-70
2020/12/19 09:21:14;;;;;;;11.30;4.82;;;;;;;10.63;83.24;100761.34;5033376;28;20050;-74
2020/12/19 09:23:41;;;;;;;9.77;4.53;;;;;;;10.74;82.88;100760.78;5032025;28;20058;-69
2020/12/19 09:26:08;;;;;;;11.00;4.07;;;;;;;10.93;82.60;100761.38;5031469;28;20802;-73
2020/12/19 09:28:35;;;;;;;7.85;3.92;;;;;;;10.91;82.63;100758.13;5032814;28;20060;-77
2020/12/19 09:31:02;;;;;;;7.60;4.28;;;;;;;11.03;82.05;100754.81;5032479;28;20145;-73
2020/12/19 09:33:29;;;;;;;10.77;4.50;;;;;;;10.95;82.06;100764.66;5030572;28;20060;-73
2020/12/19 09:35:56;;;;;;;9.77;4.38;;;;;;;11.00;82.06;100761.75;5032948;28;20053;-73
2020/12/19 09:38:23;;;;;;;11.50;4.25;;;;;;;11.05;82.21;100772.66;5032275;28;20060;-74
2020/12/19 09:40:50;;;;;;;7.65;4.25;;;;;;;10.98;82.35;100774.25;5034113;28;20050;-74
2020/12/19 09:43:18;;;;;;;9.23;4.85;;;;;;;10.84;82.51;100776.25;5020469;28;20378;-72
2020/12/19 09:45:45;;;;;;;13.48;5.53;;;;;;;10.78;83.16;100781.06;5025396;28;20056;-61
2020/12/19 09:48:12;;;;;;;12.60;7.78;;;;;;;11.05;82.45;100775.41;5024342;28;20056;-72
2020/12/19 09:50:42;;;;;;;11.00;4.63;;;;;;;11.02;82.33;100780.72;5024390;28;20049;-74
2020/12/19 09:53:09;;;;;;;16.83;5.25;;;;;;;11.11;81.46;100782.44;5022128;28;20050;-70
2020/12/19 09:55:36;;;;;;;12.15;4.70;;;;;;;11.12;81.58;100797.03;5025534;28;20083;-69
2020/12/19 09:58:04;;;;;;;12.80;4.30;;;;;;;11.25;82.03;100801.63;5008576;28;20508;-73
2020/12/19 10:00:31;;;;;;;11.45;4.80;;;;;;;11.25;81.25;100801.63;5021340;28;20050;-71
2020/12/19 10:02:58;;;;;;;8.45;4.57;;;;;;;11.41;81.24;100797.34;5014437;28;20061;-64
2020/12/19 10:05:25;;;;;;;12.13;5.25;;;;;;;11.29;80.93;100806.22;5024468;28;20045;-62
2020/12/19 10:07:52;;;;;;;10.30;4.60;;;;;;;11.23;80.73;100801.13;5007676;28;20500;-63
2020/12/19 10:10:22;;;;;;;8.98;4.65;;;;;;;11.25;81.17;100807.16;5027988;28;20343;-63
2020/12/19 10:12:49;;;;;;;11.55;5.03;;;;;;;11.31;81.05;100806.69;5028229;28;20060;-62
2020/12/19 10:15:17;;;;;;;9.77;4.97;;;;;;;11.43;80.49;100808.88;5026027;28;20049;-57
2020/12/19 10:17:44;;;;;;;9.07;4.70;;;;;;;11.33;80.72;100806.41;5026390;28;20057;-62
2020/12/19 10:20:11;;;;;;;10.40;4.72;;;;;;;11.51;80.34;100805.34;5025545;28;20056;-64
2020/12/19 10:22:38;;;;;;;10.60;5.18;;;;;;;11.45;80.33;100805.81;5021606;28;20053;-70
2020/12/19 10:25:05;;;;;;;17.83;7.95;;;;;;;11.48;80.73;100808.75;5027048;28;20507;-70
2020/12/19 10:27:32;;;;;;;19.00;8.52;;;;;;;11.68;80.32;100799.13;5027561;28;20061;-67
2020/12/19 10:29:59;;;;;;;10.45;5.60;;;;;;;11.33;80.81;100798.94;5026427;28;20045;-65
2020/12/19 10:32:26;;;;;;;12.75;5.65;;;;;;;11.54;80.49;100799.19;5010192;28;20045;-61
2020/12/19 10:34:56;;;;;;;9.75;4.88;;;;;;;11.50;80.72;100792.69;5026835;28;20041;-70
2020/12/19 10:37:28;;;;;;;11.38;5.18;;;;;;;11.46;81.07;100796.38;5024393;28;20053;-70
2020/12/19 10:39:55;;;;;;;16.70;8.32;;;;;;;11.40;81.58;100808.72;5021401;28;20046;-66
2020/12/19 10:42:24;;;;;;;20.02;8.27;;;;;;;11.28;82.31;100809.28;5011603;28;20054;-66
2020/12/19 10:44:53;;;;;;;13.52;6.47;;;;;;;11.44;82.24;100804.19;5010233;28;20050;-70
2020/12/19 10:47:20;;;;;;;9.70;5.30;;;;;;;11.54;81.70;100796.44;5024421;28;20044;-68
2020/12/19 10:49:56;;;;;;;11.45;5.53;;;;;;;11.65;81.40;100799.75;5005237;28;20038;-62
2020/12/19 10:52:24;;;;;;;12.45;5.78;;;;;;;11.66;81.12;100798.63;5025046;28;20053;-69
2020/12/19 10:54:50;;;;;;;11.95;5.53;;;;;;;11.61;80.81;100788.50;5023507;28;20049;-67
2020/12/19 10:57:20;;;;;;;10.70;4.80;;;;;;;11.60;81.05;100799.88;5023473;28;20053;-65
2020/12/19 10:59:47;;;;;;;11.93;5.47;;;;;;;11.75;81.11;100803.03;5025955;28;20053;-68
2020/12/19 11:02:21;;;;;;;11.77;7.03;;;;;;;11.55;81.73;100794.50;5028732;28;20065;-66
2020/12/19 11:04:54;;;;;;;13.40;6.72;;;;;;;11.61;81.97;100784.97;5027410;28;20049;-69
2020/12/19 11:07:21;;;;;;;12.15;5.88;;;;;;;11.72;81.24;100781.59;5009975;28;20049;-71
2020/12/19 11:09:48;;;;;;;14.32;7.88;;;;;;;11.65;81.51;100775.75;5026288;28;20519;-64
2020/12/19 11:12:15;;;;;;;18.92;10.88;;;;;;;11.73;81.62;100774.97;5027884;28;20113;-74
2020/12/19 11:14:41;;;;;;;14.70;8.27;;;;;;;11.66;81.65;100793.13;5028878;28;20049;-65
2020/12/19 11:17:08;;;;;;;12.57;7.35;;;;;;;11.80;81.28;100780.03;5006089;28;20064;-68
2020/12/19 11:19:42;;;;;;;9.05;5.28;;;;;;;11.83;81.35;100782.97;5024743;28;20668;-67
2020/12/19 11:22:09;;;;;;;10.07;5.75;;;;;;;11.85;81.13;100779.88;5026533;28;20053;-70
2020/12/19 11:24:40;;;;;;;15.05;6.28;;;;;;;11.91;81.01;100771.13;5010476;28;20060;-67
2020/12/19 11:27:07;;;;;;;11.82;5.93;;;;;;;12.06;80.64;100761.56;5022295;28;20072;-64
2020/12/19 11:29:34;;;;;;;10.32;5.63;;;;;;;12.01;80.29;100758.97;5022126;28;20045;-63
2020/12/19 11:32:03;;;;;;;11.65;5.30;;;;;;;12.01;80.94;100767.25;5023602;28;20058;-74
2020/12/19 11:34:34;;;;;;;13.50;5.18;;;;;;;12.11;80.37;100761.41;5027525;28;20497;-73
2020/12/19 11:37:01;;;;;;;10.98;5.30;;;;;;;12.14;80.44;100761.59;5028601;28;20061;-64
2020/12/19 11:39:27;;;;;;;11.93;5.03;;;;;;;12.42;79.88;100768.44;5027270;28;20052;-68
2020/12/19 11:42:01;;;;;;;11.82;5.10;;;;;;;12.34;79.16;100768.44;5028586;28;20095;-74
2020/12/19 11:44:29;;;;;;;9.05;5.15;;;;;;;12.52;79.06;100764.53;5023033;28;20045;-70
2020/12/19 11:46:57;;;;;;;11.27;4.93;;;;;;;12.42;79.09;100771.22;5024208;28;20060;-71
2020/12/19 11:49:28;;;;;;;10.75;5.38;;;;;;;12.67;79.29;100771.53;5012224;28;20041;-71
2020/12/19 11:52:00;;;;;;;7.25;4.45;;;;;;;12.69;78.15;100767.31;5026523;28;20052;-73
2020/12/19 11:54:27;;;;;;;10.10;4.93;;;;;;;12.80;77.77;100771.34;5014292;28;20045;-68
2020/12/19 11:56:56;;;;;;;12.45;5.00;;;;;;;12.80;77.48;100770.53;5009717;28;20057;-67
2020/12/19 11:59:24;;;;;;;10.15;4.80;;;;;;;12.76;77.42;100759.31;5027637;28;20061;-71
2020/12/19 12:01:51;;;;;;;9.68;4.63;;;;;;;12.84;77.44;100757.69;5013625;28;20053;-70
2020/12/19 12:04:21;;;;;;;13.18;4.25;;;;;;;12.78;77.62;100761.78;5025790;28;20044;-78
2020/12/19 12:06:48;;;;;;;8.95;4.50;;;;;;;12.90;77.32;100762.72;5025776;28;20060;-72
2020/12/19 12:09:15;;;;;;;8.00;4.60;;;;;;;12.72;77.72;100763.88;5027109;28;20046;-70